sensor_id;sensor_type;location;lat;lon;timestamp;pressure;altitude;pressure_sealevel;temperature;humidity
62617;BME280;62539;51.190;6.808;2023-04-29T00:00:35;101013.09;;;20.89;51.62
62617;BME280;62539;51.190;6.808;2023-04-29T00:03:01;101021.91;;;20.88;51.74
62617;BME280;62539;51.190;6.808;2023-04-29T00:05:26;101024.59;;;20.87;52.05
62617;BME280;62539;51.190;6.808;2023-04-29T00:07:52;101021.97;;;20.87;52.39
62617;BME280;62539;51.190;6.808;2023-04-29T00:10:17;101021.03;;;20.88;52.34
62617;BME280;62539;51.190;6.808;2023-04-29T00:12:43;101022.88;;;20.85;52.21
62617;BME280;62539;51.190;6.808;2023-04-29T00:15:09;101018.47;;;20.86;52.37
62617;BME280;62539;51.190;6.808;2023-04-29T00:17:34;101022.03;;;20.85;52.32
62617;BME280;62539;51.190;6.808;2023-04-29T00:20:01;101027.34;;;20.83;52.32
62617;BME280;62539;51.190;6.808;2023-04-29T00:22:27;101023.00;;;20.82;52.23
62617;BME280;62539;51.190;6.808;2023-04-29T00:24:52;101022.16;;;20.82;52.43
62617;BME280;62539;51.190;6.808;2023-04-29T00:27:18;101033.56;;;20.82;52.67
62617;BME280;62539;51.190;6.808;2023-04-29T00:29:43;101036.25;;;20.81;52.31
62617;BME280;62539;51.190;6.808;2023-04-29T00:32:09;101035.38;;;20.80;52.43
62617;BME280;62539;51.190;6.808;2023-04-29T00:34:34;101040.66;;;20.80;52.71
62617;BME280;62539;51.190;6.808;2023-04-29T00:37:00;101044.22;;;20.79;52.69
62617;BME280;62539;51.190;6.808;2023-04-29T00:39:25;101041.66;;;20.78;52.70
62617;BME280;62539;51.190;6.808;2023-04-29T00:41:51;101046.94;;;20.78;52.43
62617;BME280;62539;51.190;6.808;2023-04-29T00:44:17;101048.75;;;20.76;52.63
62617;BME280;62539;51.190;6.808;2023-04-29T00:46:42;101042.59;;;20.75;52.55
62617;BME280;62539;51.190;6.808;2023-04-29T00:49:09;101052.28;;;20.75;52.74
62617;BME280;62539;51.190;6.808;2023-04-29T00:51:35;101045.31;;;20.74;52.77
62617;BME280;62539;51.190;6.808;2023-04-29T00:54:03;101057.69;;;20.71;52.45
62617;BME280;62539;51.190;6.808;2023-04-29T00:56:30;101068.22;;;20.71;52.62
62617;BME280;62539;51.190;6.808;2023-04-29T00:58:58;101067.34;;;20.71;52.63
62617;BME280;62539;51.190;6.808;2023-04-29T01:01:24;101071.84;;;20.69;52.58
62617;BME280;62539;51.190;6.808;2023-04-29T01:03:50;101074.47;;;20.69;52.83
62617;BME280;62539;51.190;6.808;2023-04-29T01:15:27;101073.91;;;20.61;52.89
62617;BME280;62539;51.190;6.808;2023-04-29T01:18:04;101080.97;;;20.60;52.77
62617;BME280;62539;51.190;6.808;2023-04-29T01:20:31;101080.09;;;20.60;52.70
62617;BME280;62539;51.190;6.808;2023-04-29T01:22:57;101081.94;;;20.58;52.94
62617;BME280;62539;51.190;6.808;2023-04-29T01:25:23;101085.47;;;20.56;52.68
62617;BME280;62539;51.190;6.808;2023-04-29T01:27:56;101078.50;;;20.55;52.74
62617;BME280;62539;51.190;6.808;2023-04-29T01:33:39;101088.19;;;20.55;52.99
62617;BME280;62539;51.190;6.808;2023-04-29T01:36:32;101093.50;;;20.53;52.67
62617;BME280;62539;51.190;6.808;2023-04-29T01:39:31;101086.59;;;20.51;52.74
62617;BME280;62539;51.190;6.808;2023-04-29T01:42:14;101095.41;;;20.50;52.90
62617;BME280;62539;51.190;6.808;2023-04-29T01:44:45;101098.09;;;20.48;52.82
62617;BME280;62539;51.190;6.808;2023-04-29T01:47:13;101098.09;;;20.48;52.97
62617;BME280;62539;51.190;6.808;2023-04-29T01:49:39;101093.72;;;20.47;52.96
62617;BME280;62539;51.190;6.808;2023-04-29T01:52:05;101098.09;;;20.48;53.01
62617;BME280;62539;51.190;6.808;2023-04-29T01:54:31;101094.66;;;20.46;52.88
62617;BME280;62539;51.190;6.808;2023-04-29T01:57:01;101105.19;;;20.46;53.02
62617;BME280;62539;51.190;6.808;2023-04-29T01:59:27;101102.56;;;20.46;52.85
62617;BME280;62539;51.190;6.808;2023-04-29T02:01:52;101103.47;;;20.45;53.00
62617;BME280;62539;51.190;6.808;2023-04-29T02:04:18;101104.38;;;20.44;53.21
62617;BME280;62539;51.190;6.808;2023-04-29T02:06:43;101107.03;;;20.44;53.07
62617;BME280;62539;51.190;6.808;2023-04-29T02:09:08;101113.22;;;20.43;53.31
62617;BME280;62539;51.190;6.808;2023-04-29T02:11:34;101111.50;;;20.42;53.11
62617;BME280;62539;51.190;6.808;2023-04-29T02:13:59;101114.13;;;20.42;53.30
62617;BME280;62539;51.190;6.808;2023-04-29T02:16:25;101119.41;;;20.42;53.52
62617;BME280;62539;51.190;6.808;2023-04-29T02:18:50;101118.56;;;20.41;53.40
62617;BME280;62539;51.190;6.808;2023-04-29T02:21:16;101120.31;;;20.41;53.30
62617;BME280;62539;51.190;6.808;2023-04-29T02:23:41;101122.94;;;20.41;53.34
62617;BME280;62539;51.190;6.808;2023-04-29T02:26:07;101126.50;;;20.40;53.27
62617;BME280;62539;51.190;6.808;2023-04-29T02:28:33;101125.66;;;20.39;53.27
62617;BME280;62539;51.190;6.808;2023-04-29T02:30:59;101128.28;;;20.39;53.25
62617;BME280;62539;51.190;6.808;2023-04-29T02:33:25;101144.09;;;20.39;53.24
62617;BME280;62539;51.190;6.808;2023-04-29T02:35:50;101139.75;;;20.38;53.24
62617;BME280;62539;51.190;6.808;2023-04-29T02:38:15;101138.88;;;20.38;53.44
62617;BME280;62539;51.190;6.808;2023-04-29T02:40:42;101142.41;;;20.37;53.36
62617;BME280;62539;51.190;6.808;2023-04-29T02:43:08;101142.41;;;20.37;53.60
62617;BME280;62539;51.190;6.808;2023-04-29T02:45:35;101146.84;;;20.36;53.42
62617;BME280;62539;51.190;6.808;2023-04-29T02:48:01;101149.47;;;20.36;53.25
62617;BME280;62539;51.190;6.808;2023-04-29T02:50:26;101149.47;;;20.36;53.42
62617;BME280;62539;51.190;6.808;2023-04-29T02:52:52;101159.22;;;20.34;53.64
62617;BME280;62539;51.190;6.808;2023-04-29T02:55:18;101160.06;;;20.35;53.33
62617;BME280;62539;51.190;6.808;2023-04-29T02:57:44;101163.63;;;20.34;53.31
62617;BME280;62539;51.190;6.808;2023-04-29T03:00:09;101161.88;;;20.33;53.44
62617;BME280;62539;51.190;6.808;2023-04-29T03:02:36;101165.44;;;20.32;53.48
62617;BME280;62539;51.190;6.808;2023-04-29T03:05:02;101172.50;;;20.31;53.48
62617;BME280;62539;51.190;6.808;2023-04-29T03:07:28;101170.72;;;20.32;53.44
62617;BME280;62539;51.190;6.808;2023-04-29T03:09:54;101168.06;;;20.32;53.29
62617;BME280;62539;51.190;6.808;2023-04-29T03:12:20;101167.28;;;20.30;53.43
62617;BME280;62539;51.190;6.808;2023-04-29T03:14:46;101176.09;;;20.29;53.39
62617;BME280;62539;51.190;6.808;2023-04-29T03:17:12;101174.34;;;20.29;53.54
62617;BME280;62539;51.190;6.808;2023-04-29T03:19:37;101175.25;;;20.28;53.64
62617;BME280;62539;51.190;6.808;2023-04-29T03:22:03;101180.56;;;20.26;53.30
62617;BME280;62539;51.190;6.808;2023-04-29T03:24:28;101185.81;;;20.26;53.36
62617;BME280;62539;51.190;6.808;2023-04-29T03:26:54;101185.00;;;20.24;53.44
62617;BME280;62539;51.190;6.808;2023-04-29T03:29:19;101189.38;;;20.25;53.41
62617;BME280;62539;51.190;6.808;2023-04-29T03:31:45;101185.09;;;20.23;53.36
62617;BME280;62539;51.190;6.808;2023-04-29T03:34:11;101192.13;;;20.22;53.30
62617;BME280;62539;51.190;6.808;2023-04-29T03:36:38;101186.84;;;20.22;53.39
62617;BME280;62539;51.190;6.808;2023-04-29T03:39:04;101191.28;;;20.22;53.31
62617;BME280;62539;51.190;6.808;2023-04-29T03:41:29;101192.19;;;20.21;53.17
62617;BME280;62539;51.190;6.808;2023-04-29T03:43:55;101186.03;;;20.20;53.48
62617;BME280;62539;51.190;6.808;2023-04-29T03:46:25;101194.84;;;20.19;53.10
62617;BME280;62539;51.190;6.808;2023-04-29T03:48:51;101183.47;;;20.19;53.21
62617;BME280;62539;51.190;6.808;2023-04-29T03:51:16;101191.41;;;20.17;53.19
62617;BME280;62539;51.190;6.808;2023-04-29T03:53:42;101198.41;;;20.18;53.36
62617;BME280;62539;51.190;6.808;2023-04-29T03:56:08;101197.59;;;20.16;53.25
62617;BME280;62539;51.190;6.808;2023-04-29T03:58:33;101194.16;;;20.14;53.20
62617;BME280;62539;51.190;6.808;2023-04-29T04:00:59;101193.25;;;20.15;53.17
62617;BME280;62539;51.190;6.808;2023-04-29T04:03:24;101203.84;;;20.14;53.40
62617;BME280;62539;51.190;6.808;2023-04-29T04:05:51;101209.97;;;20.14;53.28
62617;BME280;62539;51.190;6.808;2023-04-29T04:08:17;101208.19;;;20.15;53.30
62617;BME280;62539;51.190;6.808;2023-04-29T04:10:42;101205.50;;;20.16;53.39
62617;BME280;62539;51.190;6.808;2023-04-29T04:13:08;101215.09;;;20.19;53.18
62617;BME280;62539;51.190;6.808;2023-04-29T04:15:34;101209.75;;;20.20;53.32
62617;BME280;62539;51.190;6.808;2023-04-29T04:18:00;101211.44;;;20.23;53.37
62617;BME280;62539;51.190;6.808;2023-04-29T04:20:25;101217.44;;;20.26;53.26
62617;BME280;62539;51.190;6.808;2023-04-29T04:22:50;101218.25;;;20.29;53.03
62617;BME280;62539;51.190;6.808;2023-04-29T04:25:16;101218.13;;;20.32;53.17
62617;BME280;62539;51.190;6.808;2023-04-29T04:27:41;101221.56;;;20.34;52.80
62617;BME280;62539;51.190;6.808;2023-04-29T04:30:07;101224.19;;;20.35;53.00
62617;BME280;62539;51.190;6.808;2023-04-29T04:32:33;101226.75;;;20.37;52.82
62617;BME280;62539;51.190;6.808;2023-04-29T04:34:58;101223.19;;;20.38;52.90
62617;BME280;62539;51.190;6.808;2023-04-29T04:37:24;101236.38;;;20.38;52.86
62617;BME280;62539;51.190;6.808;2023-04-29T04:39:49;101234.53;;;20.40;52.95
62617;BME280;62539;51.190;6.808;2023-04-29T04:42:14;101246.81;;;20.41;53.00
62617;BME280;62539;51.190;6.808;2023-04-29T04:44:40;101241.53;;;20.41;52.84
62617;BME280;62539;51.190;6.808;2023-04-29T04:47:06;101251.16;;;20.42;52.87
62617;BME280;62539;51.190;6.808;2023-04-29T04:49:31;101250.25;;;20.43;52.55
62617;BME280;62539;51.190;6.808;2023-04-29T04:51:56;101252.88;;;20.43;52.82
62617;BME280;62539;51.190;6.808;2023-04-29T04:54:22;101249.31;;;20.44;52.90
62617;BME280;62539;51.190;6.808;2023-04-29T04:56:47;101258.03;;;20.46;52.75
62617;BME280;62539;51.190;6.808;2023-04-29T04:59:13;101260.63;;;20.48;52.60
62617;BME280;62539;51.190;6.808;2023-04-29T05:01:38;101266.72;;;20.50;52.75
62617;BME280;62539;51.190;6.808;2023-04-29T05:04:04;101266.66;;;20.51;52.48
62617;BME280;62539;51.190;6.808;2023-04-29T05:06:29;101264.94;;;20.50;52.48
62617;BME280;62539;51.190;6.808;2023-04-29T05:08:55;101271.91;;;20.51;52.32
62617;BME280;62539;51.190;6.808;2023-04-29T05:11:21;101271.00;;;20.52;52.30
62617;BME280;62539;51.190;6.808;2023-04-29T05:13:47;101272.78;;;20.52;52.38
62617;BME280;62539;51.190;6.808;2023-04-29T05:16:12;101278.06;;;20.52;52.13
62617;BME280;62539;51.190;6.808;2023-04-29T05:18:38;101288.53;;;20.53;52.23
62617;BME280;62539;51.190;6.808;2023-04-29T05:21:03;101281.50;;;20.54;51.99
62617;BME280;62539;51.190;6.808;2023-04-29T05:23:29;101293.81;;;20.53;52.24
62617;BME280;62539;51.190;6.808;2023-04-29T05:25:55;101287.63;;;20.54;52.21
62617;BME280;62539;51.190;6.808;2023-04-29T05:28:20;101292.91;;;20.54;52.07
62617;BME280;62539;51.190;6.808;2023-04-29T05:30:46;101298.16;;;20.54;52.24
62617;BME280;62539;51.190;6.808;2023-04-29T05:33:15;101292.91;;;20.54;52.18
62617;BME280;62539;51.190;6.808;2023-04-29T05:35:40;101299.88;;;20.55;51.97
62617;BME280;62539;51.190;6.808;2023-04-29T05:38:05;101305.16;;;20.55;51.98
62617;BME280;62539;51.190;6.808;2023-04-29T05:40:31;101304.25;;;20.56;52.29
62617;BME280;62539;51.190;6.808;2023-04-29T05:42:56;101305.06;;;20.59;52.07
62617;BME280;62539;51.190;6.808;2023-04-29T05:45:22;101308.50;;;20.61;52.05
62617;BME280;62539;51.190;6.808;2023-04-29T05:47:47;101315.50;;;20.62;51.80
62617;BME280;62539;51.190;6.808;2023-04-29T05:50:13;101318.94;;;20.64;52.12
62617;BME280;62539;51.190;6.808;2023-04-29T05:52:38;101320.66;;;20.65;52.05
62617;BME280;62539;51.190;6.808;2023-04-29T05:55:04;101323.28;;;20.65;52.10
62617;BME280;62539;51.190;6.808;2023-04-29T05:57:29;101328.56;;;20.65;51.60
62617;BME280;62539;51.190;6.808;2023-04-29T05:59:56;101326.75;;;20.67;51.70
62617;BME280;62539;51.190;6.808;2023-04-29T06:02:21;101330.25;;;20.67;51.97
62617;BME280;62539;51.190;6.808;2023-04-29T06:04:47;101325.81;;;20.68;51.98
62617;BME280;62539;51.190;6.808;2023-04-29T06:07:13;101338.09;;;20.69;51.76
62617;BME280;62539;51.190;6.808;2023-04-29T06:09:38;101338.09;;;20.69;51.37
62617;BME280;62539;51.190;6.808;2023-04-29T06:12:04;101344.25;;;20.69;52.03
62617;BME280;62539;51.190;6.808;2023-04-29T06:14:30;101346.81;;;20.71;52.31
62617;BME280;62539;51.190;6.808;2023-04-29T06:16:56;101352.03;;;20.73;52.39
62617;BME280;62539;51.190;6.808;2023-04-29T06:19:21;101352.84;;;20.75;51.92
62617;BME280;62539;51.190;6.808;2023-04-29T06:21:47;101360.69;;;20.76;52.11
62617;BME280;62539;51.190;6.808;2023-04-29T06:24:12;101357.16;;;20.77;52.15
62617;BME280;62539;51.190;6.808;2023-04-29T06:26:37;101372.97;;;20.77;51.79
62617;BME280;62539;51.190;6.808;2023-04-29T06:29:03;101367.69;;;20.79;52.00
62617;BME280;62539;51.190;6.808;2023-04-29T06:31:28;101379.09;;;20.79;52.06
62617;BME280;62539;51.190;6.808;2023-04-29T06:33:54;101372.03;;;20.80;52.14
62617;BME280;62539;51.190;6.808;2023-04-29T06:36:19;101377.31;;;20.80;51.97
62617;BME280;62539;51.190;6.808;2023-04-29T06:38:45;101376.44;;;20.79;51.87
62617;BME280;62539;51.190;6.808;2023-04-29T06:41:10;101380.81;;;20.80;51.82
62617;BME280;62539;51.190;6.808;2023-04-29T06:43:35;101384.34;;;20.79;51.36
62617;BME280;62539;51.190;6.808;2023-04-29T06:46:01;101389.63;;;20.79;51.50
62617;BME280;62539;51.190;6.808;2023-04-29T06:48:27;101389.63;;;20.79;51.82
62617;BME280;62539;51.190;6.808;2023-04-29T06:50:54;101388.72;;;20.80;51.86
62617;BME280;62539;51.190;6.808;2023-04-29T06:53:22;101394.88;;;20.81;52.33
62617;BME280;62539;51.190;6.808;2023-04-29T06:55:48;101398.31;;;20.83;52.21
62617;BME280;62539;51.190;6.808;2023-04-29T06:58:14;101399.16;;;20.83;52.23
62617;BME280;62539;51.190;6.808;2023-04-29T07:00:45;101405.25;;;20.85;52.32
62617;BME280;62539;51.190;6.808;2023-04-29T07:03:12;101414.88;;;20.87;52.23
62617;BME280;62539;51.190;6.808;2023-04-29T07:05:39;101411.31;;;20.88;52.26
62617;BME280;62539;51.190;6.808;2023-04-29T07:08:07;101415.75;;;20.87;52.09
62617;BME280;62539;51.190;6.808;2023-04-29T07:10:33;101422.78;;;20.87;52.15
62617;BME280;62539;51.190;6.808;2023-04-29T07:12:59;101419.22;;;20.88;52.19
62617;BME280;62539;51.190;6.808;2023-04-29T07:15:28;101432.41;;;20.88;52.14
62617;BME280;62539;51.190;6.808;2023-04-29T07:17:55;101425.41;;;20.87;52.20
62617;BME280;62539;51.190;6.808;2023-04-29T07:20:21;101434.25;;;20.85;51.93
62617;BME280;62539;51.190;6.808;2023-04-29T07:22:46;101446.53;;;20.87;52.01
62617;BME280;62539;51.190;6.808;2023-04-29T07:25:12;101441.31;;;20.85;51.80
62617;BME280;62539;51.190;6.808;2023-04-29T07:27:38;101444.78;;;20.85;52.35
62617;BME280;62539;51.190;6.808;2023-04-29T07:30:04;101451.78;;;20.87;52.15
62617;BME280;62539;51.190;6.808;2023-04-29T07:32:31;101457.88;;;20.89;52.44
62617;BME280;62539;51.190;6.808;2023-04-29T07:34:57;101454.31;;;20.90;52.35
62617;BME280;62539;51.190;6.808;2023-04-29T07:37:23;101459.56;;;20.91;51.94
62617;BME280;62539;51.190;6.808;2023-04-29T07:39:49;101461.31;;;20.91;51.76
62617;BME280;62539;51.190;6.808;2023-04-29T07:42:15;101463.06;;;20.92;51.98
62617;BME280;62539;51.190;6.808;2023-04-29T07:44:40;101469.13;;;20.94;51.66
62617;BME280;62539;51.190;6.808;2023-04-29T07:47:06;101471.78;;;20.94;51.72
62617;BME280;62539;51.190;6.808;2023-04-29T07:49:31;101469.13;;;20.94;51.62
62617;BME280;62539;51.190;6.808;2023-04-29T07:51:57;101468.22;;;20.95;51.65
62617;BME280;62539;51.190;6.808;2023-04-29T07:54:22;101471.75;;;20.95;51.14
62617;BME280;62539;51.190;6.808;2023-04-29T07:56:48;101471.75;;;20.95;51.14
62617;BME280;62539;51.190;6.808;2023-04-29T07:59:14;101479.59;;;20.97;51.08
62617;BME280;62539;51.190;6.808;2023-04-29T08:01:40;101479.56;;;20.98;50.96
62617;BME280;62539;51.190;6.808;2023-04-29T08:04:06;101483.03;;;20.99;51.55
62617;BME280;62539;51.190;6.808;2023-04-29T08:06:32;101479.47;;;21.00;51.43
62617;BME280;62539;51.190;6.808;2023-04-29T08:08:57;101486.47;;;21.01;51.34
62617;BME280;62539;51.190;6.808;2023-04-29T08:11:23;101490.91;;;21.00;51.71
62617;BME280;62539;51.190;6.808;2023-04-29T08:13:49;101490.91;;;21.00;51.51
62617;BME280;62539;51.190;6.808;2023-04-29T08:16:15;101495.28;;;21.02;51.79
62617;BME280;62539;51.190;6.808;2023-04-29T08:18:40;101498.75;;;21.02;52.07
62617;BME280;62539;51.190;6.808;2023-04-29T08:21:06;101500.53;;;21.02;52.13
62617;BME280;62539;51.190;6.808;2023-04-29T08:23:33;101500.47;;;21.03;52.19
62617;BME280;62539;51.190;6.808;2023-04-29T08:25:59;101505.75;;;21.03;52.16
62617;BME280;62539;51.190;6.808;2023-04-29T08:28:25;101503.94;;;21.05;52.20
62617;BME280;62539;51.190;6.808;2023-04-29T08:30:51;101494.19;;;21.07;52.12
62617;BME280;62539;51.190;6.808;2023-04-29T08:33:17;101502.91;;;21.09;52.47
62617;BME280;62539;51.190;6.808;2023-04-29T08:35:42;101509.00;;;21.11;52.55
62617;BME280;62539;51.190;6.808;2023-04-29T08:38:08;101508.97;;;21.13;52.45
62617;BME280;62539;51.190;6.808;2023-04-29T08:40:44;101509.81;;;21.13;52.28
62617;BME280;62539;51.190;6.808;2023-04-29T08:43:13;101515.91;;;21.15;52.35
62617;BME280;62539;51.190;6.808;2023-04-29T08:45:41;101528.28;;;21.13;52.43
62617;BME280;62539;51.190;6.808;2023-04-29T08:48:08;101526.56;;;21.12;52.34
62617;BME280;62539;51.190;6.808;2023-04-29T08:50:38;101519.56;;;21.11;52.39
62617;BME280;62539;51.190;6.808;2023-04-29T08:53:05;101531.91;;;21.11;52.51
62617;BME280;62539;51.190;6.808;2023-04-29T08:55:34;101536.28;;;21.10;52.26
62617;BME280;62539;51.190;6.808;2023-04-29T08:58:01;101535.44;;;21.10;52.49
62617;BME280;62539;51.190;6.808;2023-04-29T09:00:30;101537.22;;;21.09;52.41
62617;BME280;62539;51.190;6.808;2023-04-29T09:02:57;101545.13;;;21.09;52.29
62617;BME280;62539;51.190;6.808;2023-04-29T09:05:25;101547.75;;;21.09;52.41
62617;BME280;62539;51.190;6.808;2023-04-29T09:07:51;101547.75;;;21.09;52.47
62617;BME280;62539;51.190;6.808;2023-04-29T09:10:18;101546.03;;;21.08;52.49
62617;BME280;62539;51.190;6.808;2023-04-29T09:12:44;101552.19;;;21.09;52.39
62617;BME280;62539;51.190;6.808;2023-04-29T09:15:11;101558.38;;;21.08;52.48
62617;BME280;62539;51.190;6.808;2023-04-29T09:17:40;101559.22;;;21.08;52.32
62617;BME280;62539;51.190;6.808;2023-04-29T09:22:50;101557.56;;;21.06;52.12
62617;BME280;62539;51.190;6.808;2023-04-29T09:25:20;101560.19;;;21.06;52.50
62617;BME280;62539;51.190;6.808;2023-04-29T09:27:45;101560.19;;;21.06;52.02
62617;BME280;62539;51.190;6.808;2023-04-29T09:30:11;101568.13;;;21.06;52.30
62617;BME280;62539;51.190;6.808;2023-04-29T09:32:37;101568.97;;;21.06;52.42
62617;BME280;62539;51.190;6.808;2023-04-29T09:35:28;101572.47;;;21.07;52.68
62617;BME280;62539;51.190;6.808;2023-04-29T09:38:08;101569.84;;;21.07;52.23
62617;BME280;62539;51.190;6.808;2023-04-29T09:40:39;101574.22;;;21.08;52.54
62617;BME280;62539;51.190;6.808;2023-04-29T09:43:15;101570.59;;;21.10;52.85
62617;BME280;62539;51.190;6.808;2023-04-29T09:45:44;101574.09;;;21.11;52.82
62617;BME280;62539;51.190;6.808;2023-04-29T09:48:12;101577.59;;;21.11;52.42
62617;BME280;62539;51.190;6.808;2023-04-29T09:50:40;101578.47;;;21.12;52.50
62617;BME280;62539;51.190;6.808;2023-04-29T09:53:09;101576.69;;;21.12;52.62
62617;BME280;62539;51.190;6.808;2023-04-29T09:55:58;101584.59;;;21.12;52.42
62617;BME280;62539;51.190;6.808;2023-04-29T09:58:29;101583.75;;;21.12;52.02
62617;BME280;62539;51.190;6.808;2023-04-29T10:00:58;101583.75;;;21.12;52.13
62617;BME280;62539;51.190;6.808;2023-04-29T10:03:31;101594.31;;;21.12;52.23
62617;BME280;62539;51.190;6.808;2023-04-29T10:05:59;101602.25;;;21.10;51.84
62617;BME280;62539;51.190;6.808;2023-04-29T10:08:26;101601.41;;;21.10;51.91
62617;BME280;62539;51.190;6.808;2023-04-29T10:10:55;101604.94;;;21.09;51.82
62617;BME280;62539;51.190;6.808;2023-04-29T10:13:24;101607.53;;;21.10;52.29
62617;BME280;62539;51.190;6.808;2023-04-29T10:16:22;101607.53;;;21.10;52.25
62617;BME280;62539;51.190;6.808;2023-04-29T10:18:55;101615.41;;;21.12;52.67
62617;BME280;62539;51.190;6.808;2023-04-29T10:21:27;101618.91;;;21.12;52.24
62617;BME280;62539;51.190;6.808;2023-04-29T10:23:58;101623.25;;;21.13;52.34
62617;BME280;62539;51.190;6.808;2023-04-29T10:26:27;101615.34;;;21.13;52.07
62617;BME280;62539;51.190;6.808;2023-04-29T10:28:57;101618.84;;;21.14;52.26
62617;BME280;62539;51.190;6.808;2023-04-29T10:31:27;101617.97;;;21.13;52.07
62617;BME280;62539;51.190;6.808;2023-04-29T10:33:57;101618.84;;;21.14;52.16
62617;BME280;62539;51.190;6.808;2023-04-29T10:36:27;101617.06;;;21.14;52.07
62617;BME280;62539;51.190;6.808;2023-04-29T10:38:57;101617.94;;;21.15;51.73
62617;BME280;62539;51.190;6.808;2023-04-29T10:41:27;101623.16;;;21.17;52.14
62617;BME280;62539;51.190;6.808;2023-04-29T10:43:58;101620.53;;;21.17;51.89
62617;BME280;62539;51.190;6.808;2023-04-29T10:46:24;101630.16;;;21.18;51.83
62617;BME280;62539;51.190;6.808;2023-04-29T10:48:59;101631.06;;;21.17;51.98
62617;BME280;62539;51.190;6.808;2023-04-29T10:51:41;101631.88;;;21.19;51.62
62617;BME280;62539;51.190;6.808;2023-04-29T10:54:12;101629.22;;;21.20;51.86
62617;BME280;62539;51.190;6.808;2023-04-29T10:56:48;101626.50;;;21.22;52.11
62617;BME280;62539;51.190;6.808;2023-04-29T11:02:01;101629.06;;;21.25;51.83
62617;BME280;62539;51.190;6.808;2023-04-29T11:04:30;101626.31;;;21.28;51.74
62617;BME280;62539;51.190;6.808;2023-04-29T11:06:56;101626.31;;;21.28;51.46
62617;BME280;62539;51.190;6.808;2023-04-29T11:14:50;101643.78;;;21.32;51.66
62617;BME280;62539;51.190;6.808;2023-04-29T11:17:17;101634.03;;;21.34;51.88
62617;BME280;62539;51.190;6.808;2023-04-29T11:19:51;101638.41;;;21.35;51.61
62617;BME280;62539;51.190;6.808;2023-04-29T11:22:24;101636.59;;;21.36;51.72
62617;BME280;62539;51.190;6.808;2023-04-29T11:25:02;101632.22;;;21.36;51.57
62617;BME280;62539;51.190;6.808;2023-04-29T11:27:31;101632.13;;;21.38;51.93
62617;BME280;62539;51.190;6.808;2023-04-29T11:29:59;101633.84;;;21.40;51.65
62617;BME280;62539;51.190;6.808;2023-04-29T11:32:30;101636.38;;;21.43;51.80
62617;BME280;62539;51.190;6.808;2023-04-29T11:35:13;101632.75;;;21.46;52.05
62617;BME280;62539;51.190;6.808;2023-04-29T11:37:41;101632.63;;;21.51;51.78
62617;BME280;62539;51.190;6.808;2023-04-29T11:40:10;101643.06;;;21.54;51.89
62617;BME280;62539;51.190;6.808;2023-04-29T11:42:43;101635.03;;;21.57;52.00
62617;BME280;62539;51.190;6.808;2023-04-29T11:45:10;101641.97;;;21.59;52.13
62617;BME280;62539;51.190;6.808;2023-04-29T11:47:36;101641.03;;;21.62;52.17
62617;BME280;62539;51.190;6.808;2023-04-29T11:50:06;101645.38;;;21.65;52.10
62617;BME280;62539;51.190;6.808;2023-04-29T11:52:35;101642.59;;;21.69;52.28
62617;BME280;62539;51.190;6.808;2023-04-29T11:55:02;101646.88;;;21.72;52.09
62617;BME280;62539;51.190;6.808;2023-04-29T11:57:29;101643.31;;;21.73;51.86
62617;BME280;62539;51.190;6.808;2023-04-29T11:59:56;101644.13;;;21.75;51.64
62617;BME280;62539;51.190;6.808;2023-04-29T12:02:28;101651.97;;;21.78;51.59
62617;BME280;62539;51.190;6.808;2023-04-29T12:04:57;101648.38;;;21.81;51.98
62617;BME280;62539;51.190;6.808;2023-04-29T12:07:25;101643.88;;;21.83;52.04
62617;BME280;62539;51.190;6.808;2023-04-29T12:09:51;101645.50;;;21.87;52.00
62617;BME280;62539;51.190;6.808;2023-04-29T12:12:16;101642.75;;;21.90;51.89
62617;BME280;62539;51.190;6.808;2023-04-29T12:14:42;101647.94;;;21.93;51.97
62617;BME280;62539;51.190;6.808;2023-04-29T12:17:09;101643.41;;;21.97;51.99
62617;BME280;62539;51.190;6.808;2023-04-29T12:19:35;101642.38;;;22.01;52.38
62617;BME280;62539;51.190;6.808;2023-04-29T12:22:04;101639.69;;;22.02;52.48
62617;BME280;62539;51.190;6.808;2023-04-29T12:24:35;101639.69;;;22.02;52.47
62617;BME280;62539;51.190;6.808;2023-04-29T12:27:02;101639.69;;;22.02;52.41
62617;BME280;62539;51.190;6.808;2023-04-29T12:29:31;101642.22;;;22.06;51.75
62617;BME280;62539;51.190;6.808;2023-04-29T12:31:57;101646.59;;;22.07;51.27
62617;BME280;62539;51.190;6.808;2023-04-29T12:34:30;101644.88;;;22.06;49.29
62617;BME280;62539;51.190;6.808;2023-04-29T12:37:00;101648.53;;;22.01;47.80
62617;BME280;62539;51.190;6.808;2023-04-29T12:39:27;101647.88;;;21.95;47.36
62617;BME280;62539;51.190;6.808;2023-04-29T12:42:00;101640.13;;;21.90;47.61
62617;BME280;62539;51.190;6.808;2023-04-29T12:44:35;101639.31;;;21.88;47.94
62617;BME280;62539;51.190;6.808;2023-04-29T12:47:11;101646.25;;;21.91;47.79
62617;BME280;62539;51.190;6.808;2023-04-29T12:49:40;101647.06;;;21.93;47.76
62617;BME280;62539;51.190;6.808;2023-04-29T12:52:07;101647.06;;;21.93;47.60
62617;BME280;62539;51.190;6.808;2023-04-29T12:54:35;101642.75;;;21.90;46.67
62617;BME280;62539;51.190;6.808;2023-04-29T12:57:01;101646.34;;;21.87;46.22
62617;BME280;62539;51.190;6.808;2023-04-29T12:59:28;101653.66;;;21.81;45.74
62617;BME280;62539;51.190;6.808;2023-04-29T13:01:53;101656.38;;;21.78;45.52
62617;BME280;62539;51.190;6.808;2023-04-29T13:04:19;101651.09;;;21.78;45.33
62617;BME280;62539;51.190;6.808;2023-04-29T13:06:44;101647.56;;;21.79;45.19
62617;BME280;62539;51.190;6.808;2023-04-29T13:09:09;101646.63;;;21.80;45.22
62617;BME280;62539;51.190;6.808;2023-04-29T13:11:39;101645.72;;;21.81;44.92
62617;BME280;62539;51.190;6.808;2023-04-29T13:14:05;101651.84;;;21.81;45.10